sensor_id;sensor_type;location;lat;lon;timestamp;pressure;altitude;pressure_sealevel;temperature;humidity
60240;BME280;46102;39.012;-7.064;2023-03-05T00:01:45;98596.94;;;12.19;46.10
60240;BME280;46102;39.012;-7.064;2023-03-05T00:03:45;98604.88;;;12.21;45.94
60240;BME280;46102;39.012;-7.064;2023-03-05T00:05:46;98596.28;;;12.22;46.10
60240;BME280;46102;39.012;-7.064;2023-03-05T00:07:47;98590.47;;;12.24;45.82
60240;BME280;46102;39.012;-7.064;2023-03-05T00:09:48;98588.22;;;12.26;45.46
60240;BME280;46102;39.012;-7.064;2023-03-05T00:11:49;98590.97;;;12.26;45.55
60240;BME280;46102;39.012;-7.064;2023-03-05T00:13:53;98584.66;;;12.25;45.56
60240;BME280;46102;39.012;-7.064;2023-03-05T00:15:54;98586.59;;;12.25;45.68
60240;BME280;46102;39.012;-7.064;2023-03-05T00:17:55;98577.03;;;12.22;45.40
60240;BME280;46102;39.012;-7.064;2023-03-05T00:19:57;98575.91;;;12.23;45.56
60240;BME280;46102;39.012;-7.064;2023-03-05T00:21:58;98573.16;;;12.23;45.18
60240;BME280;46102;39.012;-7.064;2023-03-05T00:24:01;98568.00;;;12.22;44.99
60240;BME280;46102;39.012;-7.064;2023-03-05T00:26:02;98570.59;;;12.18;45.02
60240;BME280;46102;39.012;-7.064;2023-03-05T00:28:07;98570.59;;;12.18;45.14
60240;BME280;46102;39.012;-7.064;2023-03-05T00:30:08;98561.53;;;12.18;44.93
60240;BME280;46102;39.012;-7.064;2023-03-05T00:32:10;98570.59;;;12.18;44.86
60240;BME280;46102;39.012;-7.064;2023-03-05T00:34:13;98568.50;;;12.15;44.78
60240;BME280;46102;39.012;-7.064;2023-03-05T00:36:14;98573.19;;;12.15;44.63
60240;BME280;46102;39.012;-7.064;2023-03-05T00:38:15;98570.28;;;12.11;44.86
60240;BME280;46102;39.012;-7.064;2023-03-05T00:40:16;98573.84;;;12.12;45.19
60240;BME280;46102;39.012;-7.064;2023-03-05T00:42:17;98573.03;;;12.11;45.35
60240;BME280;46102;39.012;-7.064;2023-03-05T00:44:18;98569.78;;;12.09;45.99
60240;BME280;46102;39.012;-7.064;2023-03-05T00:46:20;98578.88;;;12.10;45.83
60240;BME280;46102;39.012;-7.064;2023-03-05T00:48:22;98580.66;;;12.05;46.77
60240;BME280;46102;39.012;-7.064;2023-03-05T00:50:23;98578.56;;;12.02;47.21
60240;BME280;46102;39.012;-7.064;2023-03-05T00:52:24;98578.41;;;11.99;47.57
60240;BME280;46102;39.012;-7.064;2023-03-05T00:54:25;98580.00;;;12.00;47.41
60240;BME280;46102;39.012;-7.064;2023-03-05T00:56:25;98582.75;;;12.00;47.30
60240;BME280;46102;39.012;-7.064;2023-03-05T00:58:28;98578.72;;;11.97;47.58
60240;BME280;46102;39.012;-7.064;2023-03-05T01:00:29;98572.41;;;11.97;47.45
60240;BME280;46102;39.012;-7.064;2023-03-05T01:02:30;98579.84;;;11.96;47.36
60240;BME280;46102;39.012;-7.064;2023-03-05T01:04:31;98577.41;;;11.95;47.67
60240;BME280;46102;39.012;-7.064;2023-03-05T01:06:32;98575.97;;;11.97;47.80
60240;BME280;46102;39.012;-7.064;2023-03-05T01:08:34;98585.34;;;11.96;47.71
60240;BME280;46102;39.012;-7.064;2023-03-05T01:10:35;98581.63;;;11.92;47.68
60240;BME280;46102;39.012;-7.064;2023-03-05T01:12:36;98575.97;;;11.88;48.00
60240;BME280;46102;39.012;-7.064;2023-03-05T01:14:36;98577.75;;;11.84;48.08
60240;BME280;46102;39.012;-7.064;2023-03-05T01:16:38;98578.53;;;11.85;48.25
60240;BME280;46102;39.012;-7.064;2023-03-05T01:18:41;98578.53;;;11.85;48.48
60240;BME280;46102;39.012;-7.064;2023-03-05T01:20:42;98587.91;;;11.84;48.51
60240;BME280;46102;39.012;-7.064;2023-03-05T01:22:43;98588.38;;;11.86;48.50
60240;BME280;46102;39.012;-7.064;2023-03-05T01:24:44;98595.03;;;11.85;48.66
60240;BME280;46102;39.012;-7.064;2023-03-05T01:26:45;98586.00;;;11.84;48.87
60240;BME280;46102;39.012;-7.064;2023-03-05T01:28:46;98595.03;;;11.85;48.89
60240;BME280;46102;39.012;-7.064;2023-03-05T01:30:47;98592.28;;;11.85;49.16
60240;BME280;46102;39.012;-7.064;2023-03-05T01:32:47;98596.63;;;11.86;49.19
60240;BME280;46102;39.012;-7.064;2023-03-05T01:34:48;98595.03;;;11.85;49.23
60240;BME280;46102;39.012;-7.064;2023-03-05T01:36:49;98587.09;;;11.83;49.29
60240;BME280;46102;39.012;-7.064;2023-03-05T01:38:50;98588.25;;;11.82;49.64
60240;BME280;46102;39.012;-7.064;2023-03-05T01:40:51;98580.63;;;11.79;49.98
60240;BME280;46102;39.012;-7.064;2023-03-05T01:43:18;98583.06;;;11.81;49.93
60240;BME280;46102;39.012;-7.064;2023-03-05T01:45:20;98575.13;;;11.79;50.00
60240;BME280;46102;39.012;-7.064;2023-03-05T01:47:21;98575.13;;;11.79;49.94
60240;BME280;46102;39.012;-7.064;2023-03-05T01:49:24;98584.22;;;11.80;50.03
60240;BME280;46102;39.012;-7.064;2023-03-05T01:51:29;98584.03;;;11.76;50.46
60240;BME280;46102;39.012;-7.064;2023-03-05T01:53:31;98581.47;;;11.71;50.87
60240;BME280;46102;39.012;-7.064;2023-03-05T01:55:33;98560.59;;;11.70;50.49
60240;BME280;46102;39.012;-7.064;2023-03-05T01:57:40;98568.84;;;11.70;50.66
60240;BME280;46102;39.012;-7.064;2023-03-05T01:59:44;98565.28;;;11.70;50.73
60240;BME280;46102;39.012;-7.064;2023-03-05T02:01:48;98569.66;;;11.71;50.74
60240;BME280;46102;39.012;-7.064;2023-03-05T02:03:51;98566.91;;;11.71;50.70
60240;BME280;46102;39.012;-7.064;2023-03-05T02:05:52;98561.41;;;11.71;50.64
60240;BME280;46102;39.012;-7.064;2023-03-05T02:07:57;98558.66;;;11.71;50.82
60240;BME280;46102;39.012;-7.064;2023-03-05T02:09:59;98562.22;;;11.71;51.06
60240;BME280;46102;39.012;-7.064;2023-03-05T02:12:00;98559.00;;;11.69;51.23
60240;BME280;46102;39.012;-7.064;2023-03-05T02:14:02;98554.78;;;11.63;51.27
60240;BME280;46102;39.012;-7.064;2023-03-05T02:16:03;98557.72;;;11.58;51.86
60240;BME280;46102;39.012;-7.064;2023-03-05T02:18:06;98560.94;;;11.51;51.57
60240;BME280;46102;39.012;-7.064;2023-03-05T02:20:10;98562.72;;;11.47;51.78
60240;BME280;46102;39.012;-7.064;2023-03-05T02:22:16;98559.78;;;11.43;51.83
60240;BME280;46102;39.012;-7.064;2023-03-05T02:24:39;98556.56;;;11.41;51.92
60240;BME280;46102;39.012;-7.064;2023-03-05T02:26:40;98556.09;;;11.39;51.98
60240;BME280;46102;39.012;-7.064;2023-03-05T02:28:46;98552.50;;;11.39;52.14
60240;BME280;46102;39.012;-7.064;2023-03-05T02:30:49;98548.97;;;11.38;51.81
60240;BME280;46102;39.012;-7.064;2023-03-05T02:32:50;98544.63;;;11.37;51.80
60240;BME280;46102;39.012;-7.064;2023-03-05T02:34:53;98542.66;;;11.38;51.88
60240;BME280;46102;39.012;-7.064;2023-03-05T02:36:54;98537.66;;;11.40;52.07
60240;BME280;46102;39.012;-7.064;2023-03-05T02:38:56;98531.38;;;11.39;52.01
60240;BME280;46102;39.012;-7.064;2023-03-05T02:40:59;98531.38;;;11.39;52.04
60240;BME280;46102;39.012;-7.064;2023-03-05T02:43:00;98525.53;;;11.41;52.15
60240;BME280;46102;39.012;-7.064;2023-03-05T02:45:01;98514.22;;;11.42;52.39
60240;BME280;46102;39.012;-7.064;2023-03-05T02:47:02;98515.03;;;11.43;52.58
60240;BME280;46102;39.012;-7.064;2023-03-05T02:49:04;98504.34;;;11.41;52.63
60240;BME280;46102;39.012;-7.064;2023-03-05T02:51:06;98509.06;;;11.41;52.86
60240;BME280;46102;39.012;-7.064;2023-03-05T02:53:07;98496.13;;;11.41;52.79
60240;BME280;46102;39.012;-7.064;2023-03-05T02:55:08;98494.69;;;11.44;52.79
60240;BME280;46102;39.012;-7.064;2023-03-05T02:57:09;98496.28;;;11.45;52.85
60240;BME280;46102;39.012;-7.064;2023-03-05T02:59:09;98499.84;;;11.45;52.61
60240;BME280;46102;39.012;-7.064;2023-03-05T03:01:10;98491.94;;;11.44;53.19
60240;BME280;46102;39.012;-7.064;2023-03-05T03:03:11;98495.81;;;11.43;54.11
60240;BME280;46102;39.012;-7.064;2023-03-05T03:05:12;98488.53;;;11.38;54.06
60240;BME280;46102;39.012;-7.064;2023-03-05T03:07:14;98482.56;;;11.36;54.03
60240;BME280;46102;39.012;-7.064;2023-03-05T03:09:14;98480.97;;;11.35;53.92
60240;BME280;46102;39.012;-7.064;2023-03-05T03:11:15;98477.38;;;11.35;54.05
60240;BME280;46102;39.012;-7.064;2023-03-05T03:13:17;98473.53;;;11.36;54.35
60240;BME280;46102;39.012;-7.064;2023-03-05T03:15:18;98467.38;;;11.39;54.28
60240;BME280;46102;39.012;-7.064;2023-03-05T03:17:18;98476.44;;;11.39;54.24
60240;BME280;46102;39.012;-7.064;2023-03-05T03:19:19;98475.59;;;11.39;54.72
60240;BME280;46102;39.012;-7.064;2023-03-05T03:21:22;98479.81;;;11.36;54.71
60240;BME280;46102;39.012;-7.064;2023-03-05T03:23:24;98477.06;;;11.36;55.11
60240;BME280;46102;39.012;-7.064;2023-03-05T03:25:25;98466.75;;;11.33;55.03
60240;BME280;46102;39.012;-7.064;2023-03-05T03:27:26;98465.09;;;11.32;54.83
60240;BME280;46102;39.012;-7.064;2023-03-05T03:29:26;98463.50;;;11.31;55.03
60240;BME280;46102;39.012;-7.064;2023-03-05T03:31:27;98462.72;;;11.31;54.91
60240;BME280;46102;39.012;-7.064;2023-03-05T03:33:28;98455.94;;;11.28;55.21
60240;BME280;46102;39.012;-7.064;2023-03-05T03:35:29;98436.84;;;11.23;55.14
60240;BME280;46102;39.012;-7.064;2023-03-05T03:37:31;98440.56;;;11.18;55.18
60240;BME280;46102;39.012;-7.064;2023-03-05T03:39:32;98428.63;;;11.14;55.50
60240;BME280;46102;39.012;-7.064;2023-03-05T03:41:32;98439.94;;;11.13;55.73
60240;BME280;46102;39.012;-7.064;2023-03-05T03:43:35;98443.31;;;11.10;55.34
60240;BME280;46102;39.012;-7.064;2023-03-05T03:45:40;98434.94;;;11.06;55.86
60240;BME280;46102;39.012;-7.064;2023-03-05T03:47:40;98430.06;;;11.03;56.72
60240;BME280;46102;39.012;-7.064;2023-03-05T03:49:41;98429.13;;;10.99;57.85
60240;BME280;46102;39.012;-7.064;2023-03-05T03:51:42;98428.47;;;10.93;58.47
60240;BME280;46102;39.012;-7.064;2023-03-05T03:53:43;98424.75;;;10.89;58.92
60240;BME280;46102;39.012;-7.064;2023-03-05T03:55:44;98414.09;;;10.88;58.78
60240;BME280;46102;39.012;-7.064;2023-03-05T03:57:45;98412.00;;;10.84;59.46
60240;BME280;46102;39.012;-7.064;2023-03-05T03:59:46;98411.50;;;10.82;59.26
60240;BME280;46102;39.012;-7.064;2023-03-05T04:01:49;98400.19;;;10.75;59.40
60240;BME280;46102;39.012;-7.064;2023-03-05T04:03:50;98401.47;;;10.69;59.38
60240;BME280;46102;39.012;-7.064;2023-03-05T04:05:51;98398.91;;;10.64;60.01
60240;BME280;46102;39.012;-7.064;2023-03-05T04:07:52;98410.03;;;10.59;60.10
60240;BME280;46102;39.012;-7.064;2023-03-05T04:09:52;98397.78;;;10.56;60.31
60240;BME280;46102;39.012;-7.064;2023-03-05T04:11:53;98395.50;;;10.50;60.81
60240;BME280;46102;39.012;-7.064;2023-03-05T04:13:54;98401.47;;;10.43;60.95
60240;BME280;46102;39.012;-7.064;2023-03-05T04:15:55;98396.59;;;10.40;60.88
60240;BME280;46102;39.012;-7.064;2023-03-05T04:17:56;98408.53;;;10.35;61.07
60240;BME280;46102;39.012;-7.064;2023-03-05T04:19:56;98409.97;;;10.33;61.38
60240;BME280;46102;39.012;-7.064;2023-03-05T04:21:57;98405.94;;;10.30;61.47
60240;BME280;46102;39.012;-7.064;2023-03-05T04:23:58;98400.75;;;10.29;61.59
60240;BME280;46102;39.012;-7.064;2023-03-05T04:25:59;98389.28;;;10.27;61.68
60240;BME280;46102;39.012;-7.064;2023-03-05T04:28:00;98393.16;;;10.26;61.77
60240;BME280;46102;39.012;-7.064;2023-03-05T04:30:01;98386.88;;;10.25;61.94
60240;BME280;46102;39.012;-7.064;2023-03-05T04:32:02;98384.13;;;10.25;62.53
60240;BME280;46102;39.012;-7.064;2023-03-05T04:34:02;98387.97;;;10.24;62.49
60240;BME280;46102;39.012;-7.064;2023-03-05T04:36:04;98397.03;;;10.25;62.54
60240;BME280;46102;39.012;-7.064;2023-03-05T04:38:04;98403.94;;;10.22;62.45
60240;BME280;46102;39.012;-7.064;2023-03-05T04:40:06;98406.53;;;10.18;63.08
60240;BME280;46102;39.012;-7.064;2023-03-05T04:42:07;98401.66;;;10.15;63.46
60240;BME280;46102;39.012;-7.064;2023-03-05T04:44:09;98395.06;;;10.16;63.54
60240;BME280;46102;39.012;-7.064;2023-03-05T04:46:10;98394.75;;;10.18;63.52
60240;BME280;46102;39.012;-7.064;2023-03-05T04:48:11;98388.94;;;10.19;63.70
60240;BME280;46102;39.012;-7.064;2023-03-05T04:50:12;98375.72;;;10.21;63.34
60240;BME280;46102;39.012;-7.064;2023-03-05T04:52:14;98371.03;;;10.22;63.37
60240;BME280;46102;39.012;-7.064;2023-03-05T04:54:14;98356.53;;;10.21;63.27
60240;BME280;46102;39.012;-7.064;2023-03-05T04:56:15;98347.03;;;10.19;64.13
60240;BME280;46102;39.012;-7.064;2023-03-05T04:58:16;98359.94;;;10.18;63.72
60240;BME280;46102;39.012;-7.064;2023-03-05T05:00:17;98368.47;;;10.17;63.77
60240;BME280;46102;39.012;-7.064;2023-03-05T05:02:18;98373.94;;;10.17;63.89
60240;BME280;46102;39.012;-7.064;2023-03-05T05:04:19;98378.31;;;10.18;63.92
60240;BME280;46102;39.012;-7.064;2023-03-05T05:06:20;98383.94;;;10.21;64.04
60240;BME280;46102;39.012;-7.064;2023-03-05T05:08:21;98372.38;;;10.25;64.35
60240;BME280;46102;39.012;-7.064;2023-03-05T05:10:23;98370.91;;;10.27;64.60
60240;BME280;46102;39.012;-7.064;2023-03-05T05:12:28;98384.00;;;10.30;64.69
60240;BME280;46102;39.012;-7.064;2023-03-05T05:14:30;98376.28;;;10.32;64.97
60240;BME280;46102;39.012;-7.064;2023-03-05T05:16:30;98366.59;;;10.35;65.54
60240;BME280;46102;39.012;-7.064;2023-03-05T05:18:31;98358.38;;;10.35;65.54
60240;BME280;46102;39.012;-7.064;2023-03-05T05:20:32;98347.41;;;10.35;65.54
60240;BME280;46102;39.012;-7.064;2023-03-05T05:22:33;98344.81;;;10.30;66.00
60240;BME280;46102;39.012;-7.064;2023-03-05T05:24:34;98337.19;;;10.27;66.16
60240;BME280;46102;39.012;-7.064;2023-03-05T05:26:35;98334.59;;;10.21;66.04
60240;BME280;46102;39.012;-7.064;2023-03-05T05:28:36;98333.13;;;10.15;66.46
60240;BME280;46102;39.012;-7.064;2023-03-05T05:30:37;98328.31;;;10.12;66.44
60240;BME280;46102;39.012;-7.064;2023-03-05T05:32:38;98335.22;;;10.01;68.16
60240;BME280;46102;39.012;-7.064;2023-03-05T05:34:39;98333.06;;;9.80;69.09
60240;BME280;46102;39.012;-7.064;2023-03-05T05:36:40;98333.16;;;9.67;69.44
60240;BME280;46102;39.012;-7.064;2023-03-05T05:38:41;98334.72;;;9.59;70.24
60240;BME280;46102;39.012;-7.064;2023-03-05T05:40:42;98331.97;;;9.50;71.42
60240;BME280;46102;39.012;-7.064;2023-03-05T05:42:42;98333.41;;;9.48;71.50
60240;BME280;46102;39.012;-7.064;2023-03-05T05:44:44;98333.22;;;9.44;71.70
60240;BME280;46102;39.012;-7.064;2023-03-05T05:46:46;98325.31;;;9.43;72.01
60240;BME280;46102;39.012;-7.064;2023-03-05T05:48:47;98328.22;;;9.37;71.73
60240;BME280;46102;39.012;-7.064;2023-03-05T05:50:48;98325.28;;;9.34;72.42
60240;BME280;46102;39.012;-7.064;2023-03-05T05:52:51;98332.06;;;9.36;71.71
60240;BME280;46102;39.012;-7.064;2023-03-05T05:54:51;98335.72;;;9.32;72.72
60240;BME280;46102;39.012;-7.064;2023-03-05T05:56:52;98337.81;;;9.26;72.99
60240;BME280;46102;39.012;-7.064;2023-03-05T05:58:53;98347.63;;;9.27;72.50
60240;BME280;46102;39.012;-7.064;2023-03-05T06:00:54;98351.50;;;9.26;72.42
60240;BME280;46102;39.012;-7.064;2023-03-05T06:02:55;98354.09;;;9.31;72.31
60240;BME280;46102;39.012;-7.064;2023-03-05T06:04:56;98352.34;;;9.35;71.94
60240;BME280;46102;39.012;-7.064;2023-03-05T06:06:57;98362.72;;;9.47;71.07
60240;BME280;46102;39.012;-7.064;2023-03-05T06:08:58;98355.78;;;9.50;70.44
60240;BME280;46102;39.012;-7.064;2023-03-05T06:10:59;98366.31;;;9.56;69.56
60240;BME280;46102;39.012;-7.064;2023-03-05T06:13:00;98367.78;;;9.63;69.56
60240;BME280;46102;39.012;-7.064;2023-03-05T06:15:01;98363.31;;;9.67;69.15
60240;BME280;46102;39.012;-7.064;2023-03-05T06:17:01;98370.25;;;9.73;69.28
60240;BME280;46102;39.012;-7.064;2023-03-05T06:19:03;98366.38;;;9.74;68.56
60240;BME280;46102;39.012;-7.064;2023-03-05T06:21:06;98384.13;;;9.76;68.69
60240;BME280;46102;39.012;-7.064;2023-03-05T06:23:07;98386.06;;;9.76;67.92
60240;BME280;46102;39.012;-7.064;2023-03-05T06:25:09;98391.72;;;9.79;67.81
60240;BME280;46102;39.012;-7.064;2023-03-05T06:27:10;98394.63;;;9.83;67.02
60240;BME280;46102;39.012;-7.064;2023-03-05T06:29:11;98389.63;;;9.85;66.71
60240;BME280;46102;39.012;-7.064;2023-03-05T06:31:16;98402.22;;;9.86;66.77
60240;BME280;46102;39.012;-7.064;2023-03-05T06:33:17;98391.44;;;9.90;66.23
60240;BME280;46102;39.012;-7.064;2023-03-05T06:35:18;98390.78;;;9.93;66.56
60240;BME280;46102;39.012;-7.064;2023-03-05T06:37:19;98395.97;;;9.94;66.47
60240;BME280;46102;39.012;-7.064;2023-03-05T06:39:20;98395.34;;;9.97;66.35
60240;BME280;46102;39.012;-7.064;2023-03-05T06:41:23;98399.88;;;10.02;66.23
60240;BME280;46102;39.012;-7.064;2023-03-05T06:43:24;98406.66;;;10.05;66.25
60240;BME280;46102;39.012;-7.064;2023-03-05T06:45:25;98412.63;;;10.07;65.77
60240;BME280;46102;39.012;-7.064;2023-03-05T06:47:26;98414.22;;;10.08;66.04
60240;BME280;46102;39.012;-7.064;2023-03-05T06:49:27;98419.41;;;10.09;65.74
60240;BME280;46102;39.012;-7.064;2023-03-05T06:51:31;98418.25;;;10.10;66.12
60240;BME280;46102;39.012;-7.064;2023-03-05T06:53:32;98422.63;;;10.11;65.95
60240;BME280;46102;39.012;-7.064;2023-03-05T06:55:35;98425.88;;;10.13;65.69
60240;BME280;46102;39.012;-7.064;2023-03-05T06:57:39;98424.44;;;10.16;65.67
60240;BME280;46102;39.012;-7.064;2023-03-05T06:59:39;98424.91;;;10.18;65.97
60240;BME280;46102;39.012;-7.064;2023-03-05T07:01:41;98445.91;;;10.23;65.46
60240;BME280;46102;39.012;-7.064;2023-03-05T07:03:42;98444.94;;;10.27;65.42
60240;BME280;46102;39.012;-7.064;2023-03-05T07:05:43;98438.03;;;10.30;65.48
60240;BME280;46102;39.012;-7.064;2023-03-05T07:07:44;98445.13;;;10.31;65.63
60240;BME280;46102;39.012;-7.064;2023-03-05T07:09:45;98449.50;;;10.32;65.93
60240;BME280;46102;39.012;-7.064;2023-03-05T07:11:49;98454.34;;;10.35;65.68
60240;BME280;46102;39.012;-7.064;2023-03-05T07:13:50;98452.91;;;10.37;65.71
60240;BME280;46102;39.012;-7.064;2023-03-05T07:15:51;98463.25;;;10.40;65.82
60240;BME280;46102;39.012;-7.064;2023-03-05T07:17:52;98464.03;;;10.41;65.75
60240;BME280;46102;39.012;-7.064;2023-03-05T07:19:52;98476.00;;;10.45;66.01
60240;BME280;46102;39.012;-7.064;2023-03-05T07:21:53;98481.66;;;10.49;65.77
60240;BME280;46102;39.012;-7.064;2023-03-05T07:23:55;98492.00;;;10.52;65.36
60240;BME280;46102;39.012;-7.064;2023-03-05T07:25:56;98492.63;;;10.57;65.32
60240;BME280;46102;39.012;-7.064;2023-03-05T07:27:57;98505.25;;;10.58;65.46
60240;BME280;46102;39.012;-7.064;2023-03-05T07:29:58;98510.72;;;10.58;65.31
60240;BME280;46102;39.012;-7.064;2023-03-05T07:31:58;98508.31;;;10.57;65.49
60240;BME280;46102;39.012;-7.064;2023-03-05T07:34:00;98505.06;;;10.55;65.68
60240;BME280;46102;39.012;-7.064;2023-03-05T07:36:03;98512.16;;;10.56;66.03
60240;BME280;46102;39.012;-7.064;2023-03-05T07:38:04;98509.91;;;10.58;66.15
60240;BME280;46102;39.012;-7.064;2023-03-05T07:40:05;98520.25;;;10.61;66.18
60240;BME280;46102;39.012;-7.064;2023-03-05T07:42:06;98516.56;;;10.66;66.55
60240;BME280;46102;39.012;-7.064;2023-03-05T07:44:22;98509.63;;;10.68;66.84
60240;BME280;46102;39.012;-7.064;2023-03-05T07:46:29;98513.00;;;10.74;66.82
60240;BME280;46102;39.012;-7.064;2023-03-05T07:48:30;98504.97;;;10.77;67.05
60240;BME280;46102;39.012;-7.064;2023-03-05T07:50:31;98501.56;;;10.80;67.21
60240;BME280;46102;39.012;-7.064;2023-03-05T07:52:32;98504.97;;;10.86;67.22
60240;BME280;46102;39.012;-7.064;2023-03-05T07:54:34;98510.50;;;10.95;67.06
60240;BME280;46102;39.012;-7.064;2023-03-05T07:56:37;98500.50;;;10.99;67.20
60240;BME280;46102;39.012;-7.064;2023-03-05T07:58:38;98487.41;;;11.04;66.86
60240;BME280;46102;39.012;-7.064;2023-03-05T08:00:39;98485.63;;;11.09;66.56
60240;BME280;46102;39.012;-7.064;2023-03-05T08:02:40;98500.97;;;11.10;66.84
60240;BME280;46102;39.012;-7.064;2023-03-05T08:04:41;98499.69;;;11.07;66.79
60240;BME280;46102;39.012;-7.064;2023-03-05T08:06:42;98492.91;;;11.04;67.00
60240;BME280;46102;39.012;-7.064;2023-03-05T08:08:43;98497.28;;;11.06;67.10
60240;BME280;46102;39.012;-7.064;2023-03-05T08:10:44;98489.84;;;11.06;67.12
60240;BME280;46102;39.012;-7.064;2023-03-05T08:12:45;98479.97;;;11.05;67.63
60240;BME280;46102;39.012;-7.064;2023-03-05T08:14:45;98478.38;;;11.04;67.74
60240;BME280;46102;39.012;-7.064;2023-03-05T08:16:47;98488.56;;;11.03;68.25
60240;BME280;46102;39.012;-7.064;2023-03-05T08:18:56;98481.91;;;11.04;68.67
60240;BME280;46102;39.012;-7.064;2023-03-05T08:20:57;98489.16;;;11.00;68.52
60240;BME280;46102;39.012;-7.064;2023-03-05T08:22:57;98491.13;;;11.00;68.52
60240;BME280;46102;39.012;-7.064;2023-03-05T08:24:59;98466.22;;;10.96;68.37
60240;BME280;46102;39.012;-7.064;2023-03-05T08:26:59;98478.84;;;10.97;68.51
60240;BME280;46102;39.012;-7.064;2023-03-05T08:29:01;98470.59;;;10.97;68.68
60240;BME280;46102;39.012;-7.064;2023-03-05T08:31:07;98479.34;;;10.99;68.96
60240;BME280;46102;39.012;-7.064;2023-03-05T08:33:08;98469.97;;;11.00;69.24
60240;BME280;46102;39.012;-7.064;2023-03-05T08:35:09;98470.75;;;11.01;69.52
60240;BME280;46102;39.012;-7.064;2023-03-05T08:37:10;98477.88;;;11.02;69.64
60240;BME280;46102;39.012;-7.064;2023-03-05T08:39:11;98475.63;;;11.04;69.95
60240;BME280;46102;39.012;-7.064;2023-03-05T08:41:12;98476.13;;;11.06;69.76
60240;BME280;46102;39.012;-7.064;2023-03-05T08:43:13;98474.47;;;11.05;69.86
60240;BME280;46102;39.012;-7.064;2023-03-05T08:45:14;98481.91;;;11.04;69.62
60240;BME280;46102;39.012;-7.064;2023-03-05T08:47:16;98485.63;;;11.09;69.86
60240;BME280;46102;39.012;-7.064;2023-03-05T08:49:18;98494.66;;;11.00;70.86
60240;BME280;46102;39.012;-7.064;2023-03-05T08:51:22;98483.03;;;10.95;72.41
60240;BME280;46102;39.012;-7.064;2023-03-05T08:53:25;98487.38;;;10.96;73.05
60240;BME280;46102;39.012;-7.064;2023-03-05T08:55:26;98486.91;;;10.94;73.32
60240;BME280;46102;39.012;-7.064;2023-03-05T08:57:27;98487.38;;;10.96;72.27
60240;BME280;46102;39.012;-7.064;2023-03-05T08:59:28;98482.72;;;10.88;72.46
60240;BME280;46102;39.012;-7.064;2023-03-05T09:01:29;98492.06;;;10.87;72.71
60240;BME280;46102;39.012;-7.064;2023-03-05T09:03:31;98504.19;;;10.94;73.05
60240;BME280;46102;39.012;-7.064;2023-03-05T09:05:32;98496.28;;;11.01;72.64
60240;BME280;46102;39.012;-7.064;2023-03-05T09:07:32;98489.66;;;11.02;72.50
60240;BME280;46102;39.012;-7.064;2023-03-05T09:09:33;98505.31;;;10.93;72.98
60240;BME280;46102;39.012;-7.064;2023-03-05T09:11:35;98511.75;;;10.80;73.75
60240;BME280;46102;39.012;-7.064;2023-03-05T09:13:36;98503.94;;;10.65;73.02
60240;BME280;46102;39.012;-7.064;2023-03-05T09:15:38;98501.06;;;10.61;72.47
60240;BME280;46102;39.012;-7.064;2023-03-05T09:17:38;98504.56;;;10.53;72.19
60240;BME280;46102;39.012;-7.064;2023-03-05T09:19:41;98501.59;;;10.32;74.30
60240;BME280;46102;39.012;-7.064;2023-03-05T09:21:42;98501.69;;;10.18;75.82
60240;BME280;46102;39.012;-7.064;2023-03-05T09:23:43;98509.06;;;10.17;76.98
60240;BME280;46102;39.012;-7.064;2023-03-05T09:25:46;98506.66;;;10.16;76.78
60240;BME280;46102;39.012;-7.064;2023-03-05T09:27:47;98499.25;;;10.16;77.59
60240;BME280;46102;39.012;-7.064;2023-03-05T09:29:48;98505.38;;;10.13;77.65
60240;BME280;46102;39.012;-7.064;2023-03-05T09:31:50;98503.56;;;10.09;78.29
60240;BME280;46102;39.012;-7.064;2023-03-05T09:33:51;98500.16;;;10.03;79.85
60240;BME280;46102;39.012;-7.064;2023-03-05T09:35:52;98508.31;;;9.94;81.16
60240;BME280;46102;39.012;-7.064;2023-03-05T09:37:52;98502.13;;;9.80;81.90
60240;BME280;46102;39.012;-7.064;2023-03-05T09:39:53;98495.78;;;9.71;82.66
60240;BME280;46102;39.012;-7.064;2023-03-05T09:42:04;98495.28;;;9.69;83.35
60240;BME280;46102;39.012;-7.064;2023-03-05T09:48:49;98502.72;;;9.77;85.05
60240;BME280;46102;39.012;-7.064;2023-03-05T09:51:00;98501.41;;;9.74;85.05
60240;BME280;46102;39.012;-7.064;2023-03-05T09:53:07;98495.34;;;9.77;84.41
60240;BME280;46102;39.012;-7.064;2023-03-05T09:55:25;98496.00;;;9.83;84.08
60240;BME280;46102;39.012;-7.064;2023-03-05T09:57:39;98493.75;;;9.85;84.70
60240;BME280;46102;39.012;-7.064;2023-03-05T09:59:54;98488.47;;;9.89;85.00
60240;BME280;46102;39.012;-7.064;2023-03-05T10:02:02;98488.97;;;9.91;86.24
60240;BME280;46102;39.012;-7.064;2023-03-05T10:04:20;98476.22;;;9.95;86.28
60240;BME280;46102;39.012;-7.064;2023-03-05T10:06:33;98484.50;;;10.04;85.80
60240;BME280;46102;39.012;-7.064;2023-03-05T10:10:58;98478.75;;;9.83;87.06
60240;BME280;46102;39.012;-7.064;2023-03-05T10:13:12;98487.44;;;9.76;87.42
60240;BME280;46102;39.012;-7.064;2023-03-05T10:20:09;98487.63;;;9.88;88.98
60240;BME280;46102;39.012;-7.064;2023-03-05T10:22:27;98477.38;;;9.94;86.20
60240;BME280;46102;39.012;-7.064;2023-03-05T10:24:45;98474.69;;;10.03;86.28
60240;BME280;46102;39.012;-7.064;2023-03-05T10:27:03;98486.25;;;9.99;87.64
60240;BME280;46102;39.012;-7.064;2023-03-05T10:29:28;98485.94;;;10.01;88.81
60240;BME280;46102;39.012;-7.064;2023-03-05T10:40:52;98474.56;;;9.85;87.79
60240;BME280;46102;39.012;-7.064;2023-03-05T10:49:31;98457.53;;;9.97;86.88
60240;BME280;46102;39.012;-7.064;2023-03-05T10:51:42;98458.19;;;9.94;86.95
60240;BME280;46102;39.012;-7.064;2023-03-05T10:53:51;98460.78;;;9.99;86.65
60240;BME280;46102;39.012;-7.064;2023-03-05T10:55:54;98466.41;;;9.94;85.83
60240;BME280;46102;39.012;-7.064;2023-03-05T10:57:57;98463.53;;;9.99;86.81
60240;BME280;46102;39.012;-7.064;2023-03-05T11:02:07;98453.09;;;10.10;88.76
60240;BME280;46102;39.012;-7.064;2023-03-05T11:04:28;98463.31;;;10.18;88.39
60240;BME280;46102;39.012;-7.064;2023-03-05T11:06:38;98465.69;;;10.19;87.46
60240;BME280;46102;39.012;-7.064;2023-03-05T11:08:39;98454.91;;;10.23;88.24
60240;BME280;46102;39.012;-7.064;2023-03-05T11:10:40;98447.19;;;10.25;87.32
60240;BME280;46102;39.012;-7.064;2023-03-05T11:12:41;98458.34;;;10.29;87.50